createdAt,value
2018-03-19T00:02:11.285Z,-7.90
2018-03-19T00:04:38.921Z,-7.90
2018-03-19T00:07:06.589Z,-7.90
2018-03-19T00:09:34.441Z,-8.00
2018-03-19T00:12:02.121Z,-7.80
2018-03-19T00:14:29.857Z,-7.80
2018-03-19T00:16:58.666Z,-7.80
2018-03-19T00:19:26.466Z,-7.90
2018-03-19T00:21:54.069Z,-7.80
2018-03-19T00:24:21.651Z,-7.90
2018-03-19T00:26:49.223Z,-7.80
2018-03-19T00:29:16.968Z,-7.90
2018-03-19T00:31:45.073Z,-7.90
2018-03-19T00:34:13.470Z,-7.80
2018-03-19T00:36:58.589Z,-7.80
2018-03-19T00:39:26.425Z,-7.90
2018-03-19T00:41:54.320Z,-7.90
2018-03-19T00:44:21.969Z,-7.80
2018-03-19T00:46:49.697Z,-7.80
2018-03-19T00:49:17.307Z,-7.80
2018-03-19T00:51:44.961Z,-7.80
2018-03-19T00:54:12.677Z,-7.80
2018-03-19T00:56:40.466Z,-7.90
2018-03-19T00:59:08.183Z,-7.90
2018-03-19T01:01:36.513Z,-7.90
2018-03-19T01:04:04.276Z,-7.90
2018-03-19T01:06:31.997Z,-7.90
2018-03-19T01:08:59.709Z,-7.90
2018-03-19T01:11:27.542Z,-7.80
2018-03-19T01:13:55.338Z,-7.90
2018-03-19T01:16:23.226Z,-7.90
2018-03-19T01:18:51.045Z,-7.90
2018-03-19T01:21:18.737Z,-7.80
2018-03-19T01:23:46.694Z,-7.80
2018-03-19T01:26:14.254Z,-7.70
2018-03-19T01:28:42.122Z,-7.80
2018-03-19T01:31:09.990Z,-7.70
2018-03-19T01:33:37.589Z,-7.80
2018-03-19T01:36:05.176Z,-7.80
2018-03-19T01:38:32.912Z,-7.90
2018-03-19T01:41:00.631Z,-7.90
2018-03-19T01:43:28.471Z,-7.80
2018-03-19T01:45:56.154Z,-7.80
2018-03-19T01:48:23.812Z,-7.80
2018-03-19T01:50:51.395Z,-7.70
2018-03-19T01:53:19.188Z,-7.80
2018-03-19T01:56:04.502Z,-7.80
2018-03-19T01:58:32.081Z,-7.80
2018-03-19T02:00:59.728Z,-7.80
2018-03-19T02:03:27.639Z,-7.80
2018-03-19T02:05:56.027Z,-7.90
2018-03-19T02:08:23.726Z,-7.90
2018-03-19T02:10:51.602Z,-7.90
2018-03-19T02:13:19.268Z,-7.90
2018-03-19T02:15:46.813Z,-8.00
2018-03-19T02:18:14.637Z,-8.00
2018-03-19T02:20:42.397Z,-7.80
2018-03-19T02:23:10.257Z,-7.90
2018-03-19T02:25:55.434Z,-8.00
2018-03-19T02:28:23.112Z,-8.00
2018-03-19T02:30:50.854Z,-7.90
2018-03-19T02:33:18.766Z,-7.90
2018-03-19T02:35:46.436Z,-7.90
2018-03-19T02:38:14.004Z,-7.90
2018-03-19T02:40:41.754Z,-7.90
2018-03-19T02:43:09.425Z,-7.90
2018-03-19T02:45:37.050Z,-7.90
2018-03-19T02:48:22.361Z,-7.90
2018-03-19T02:50:50.025Z,-7.90
2018-03-19T02:53:18.092Z,-7.90
2018-03-19T02:55:45.803Z,-7.90
2018-03-19T02:58:13.785Z,-8.00
2018-03-19T03:00:41.569Z,-7.90
2018-03-19T03:03:09.517Z,-7.90
2018-03-19T03:05:37.152Z,-8.00
2018-03-19T03:08:04.867Z,-8.10
2018-03-19T03:10:32.780Z,-8.00
2018-03-19T03:13:00.598Z,-8.00
2018-03-19T03:15:28.355Z,-7.90
2018-03-19T03:17:56.174Z,-8.00
2018-03-19T03:20:24.196Z,-7.90
2018-03-19T03:22:52.114Z,-7.80
2018-03-19T03:25:19.971Z,-7.90
2018-03-19T03:27:47.795Z,-8.00
2018-03-19T03:30:15.436Z,-8.10
2018-03-19T03:32:43.285Z,-8.00
2018-03-19T03:35:10.845Z,-7.90
2018-03-19T03:37:38.591Z,-7.80
2018-03-19T03:40:06.181Z,-7.90
2018-03-19T03:42:33.958Z,-8.00
2018-03-19T03:45:01.510Z,-7.90
2018-03-19T03:47:29.513Z,-7.90
2018-03-19T03:49:57.965Z,-7.90
2018-03-19T03:52:25.557Z,-7.90
2018-03-19T03:54:53.137Z,-7.90
2018-03-19T03:57:20.884Z,-7.80
2018-03-19T03:59:48.758Z,-7.90
2018-03-19T04:02:16.509Z,-8.00
2018-03-19T04:04:45.140Z,-8.00
2018-03-19T04:07:12.966Z,-8.00
2018-03-19T04:09:40.550Z,-8.00
2018-03-19T04:12:08.203Z,-8.00
2018-03-19T04:14:35.801Z,-8.00
2018-03-19T04:17:03.409Z,-8.00
2018-03-19T04:19:30.982Z,-8.00
2018-03-19T04:21:58.923Z,-7.90
2018-03-19T04:24:26.503Z,-7.90
2018-03-19T04:26:54.057Z,-7.80
2018-03-19T04:29:21.626Z,-8.00
2018-03-19T04:31:49.674Z,-8.00
2018-03-19T04:34:17.338Z,-8.00
2018-03-19T04:36:45.357Z,-7.90
2018-03-19T04:39:13.605Z,-7.90
2018-03-19T04:41:41.236Z,-7.90
2018-03-19T04:44:08.949Z,-7.90
2018-03-19T04:46:36.801Z,-8.00
2018-03-19T04:49:04.357Z,-8.10
2018-03-19T04:51:31.914Z,-8.10
2018-03-19T04:53:59.836Z,-8.10
2018-03-19T04:56:28.225Z,-8.10
2018-03-19T04:58:55.798Z,-8.10
2018-03-19T05:01:23.810Z,-8.00
2018-03-19T05:03:51.491Z,-8.10
2018-03-19T05:06:20.007Z,-7.90
2018-03-19T05:08:47.674Z,-8.00
2018-03-19T05:11:15.306Z,-7.90
2018-03-19T05:13:42.945Z,-8.00
2018-03-19T05:16:10.790Z,-7.90
2018-03-19T05:18:38.459Z,-7.90
2018-03-19T05:21:06.282Z,-7.90
2018-03-19T05:23:34.183Z,-7.80
2018-03-19T05:26:01.753Z,-7.90
2018-03-19T05:28:29.313Z,-7.80
2018-03-19T05:30:57.020Z,-7.70
2018-03-19T05:33:24.599Z,-7.70
2018-03-19T05:35:52.485Z,-7.70
2018-03-19T05:38:20.077Z,-7.80
2018-03-19T05:40:47.959Z,-7.70
2018-03-19T05:43:15.516Z,-7.60
2018-03-19T05:45:43.551Z,-7.60
2018-03-19T05:48:11.235Z,-7.60
2018-03-19T05:50:39.559Z,-7.50
2018-03-19T05:53:07.533Z,-7.50
2018-03-19T05:55:35.207Z,-7.40
2018-03-19T05:58:02.764Z,-7.40
2018-03-19T06:00:30.426Z,-7.50
2018-03-19T06:02:58.055Z,-7.50
2018-03-19T06:05:25.793Z,-7.50
2018-03-19T06:07:53.381Z,-7.40
2018-03-19T06:10:21.181Z,-7.50
2018-03-19T06:12:49.066Z,-7.30
2018-03-19T06:15:17.518Z,-7.30
2018-03-19T06:17:45.238Z,-7.30
2018-03-19T06:20:12.820Z,-7.30
2018-03-19T06:22:40.781Z,-7.20
2018-03-19T06:25:08.609Z,-7.10
2018-03-19T06:27:37.003Z,-7.20
2018-03-19T06:30:04.630Z,-7.20
2018-03-19T06:32:32.365Z,-6.90
2018-03-19T06:35:00.034Z,-6.80
2018-03-19T06:37:27.983Z,-6.90
2018-03-19T06:39:55.552Z,-6.90
2018-03-19T06:42:23.400Z,-6.60
2018-03-19T06:44:51.002Z,-6.80
2018-03-19T06:47:18.562Z,-6.60
2018-03-19T06:49:47.244Z,-6.60
2018-03-19T06:52:14.857Z,-6.60
2018-03-19T06:54:42.406Z,-6.50
2018-03-19T06:57:10.422Z,-6.50
2018-03-19T06:59:38.259Z,-6.40
2018-03-19T07:02:05.959Z,-6.40
2018-03-19T07:04:34.282Z,-6.40
2018-03-19T07:07:01.885Z,-6.40
2018-03-19T07:09:29.429Z,-6.40
2018-03-19T07:11:57.003Z,-6.20
2018-03-19T07:14:24.628Z,-6.30
2018-03-19T07:16:52.276Z,-6.50
2018-03-19T07:19:20.174Z,-6.60
2018-03-19T07:21:48.047Z,-6.60
2018-03-19T07:24:15.599Z,-6.40
2018-03-19T07:26:43.439Z,-6.50
2018-03-19T07:29:11.197Z,-6.30
2018-03-19T07:31:39.238Z,-6.30
2018-03-19T07:34:06.789Z,-6.30
2018-03-19T07:36:35.149Z,-6.30
2018-03-19T07:39:02.702Z,-6.30
2018-03-19T07:41:31.181Z,-6.20
2018-03-19T07:43:58.794Z,-6.20
2018-03-19T07:46:26.513Z,-6.20
2018-03-19T07:48:55.118Z,-6.00
2018-03-19T07:51:23.033Z,-6.00
2018-03-19T07:53:50.644Z,-6.20
2018-03-19T07:56:18.502Z,-6.20
2018-03-19T07:58:46.098Z,-6.30
2018-03-19T08:01:13.853Z,-5.90
2018-03-19T08:03:41.429Z,-6.20
2018-03-19T08:06:09.630Z,-6.40
2018-03-19T08:08:37.273Z,-6.00
2018-03-19T08:11:04.885Z,-6.00
2018-03-19T08:13:32.473Z,-6.10
2018-03-19T08:16:00.026Z,-6.30
2018-03-19T08:18:27.585Z,-6.10
2018-03-19T08:20:55.166Z,-5.80
2018-03-19T08:23:22.719Z,-5.90
2018-03-19T08:25:50.285Z,-5.80
2018-03-19T08:28:18.361Z,-5.80
2018-03-19T08:30:45.914Z,-5.90
2018-03-19T08:33:13.851Z,-6.20
2018-03-19T08:35:41.476Z,-6.00
2018-03-19T08:38:09.081Z,-5.90
2018-03-19T08:40:36.645Z,-5.70
2018-03-19T08:43:04.249Z,-5.80
2018-03-19T08:45:31.794Z,-5.60
2018-03-19T08:48:00.158Z,-5.60
2018-03-19T08:50:27.785Z,-5.60
2018-03-19T08:52:55.523Z,-5.80
2018-03-19T08:55:23.239Z,-5.60
2018-03-19T08:57:50.894Z,-5.40
2018-03-19T09:00:18.451Z,-5.40
2018-03-19T09:02:46.002Z,-4.90
2018-03-19T09:05:13.853Z,-5.20
2018-03-19T09:07:41.409Z,-5.40
2018-03-19T09:10:08.978Z,-4.90
2018-03-19T09:12:36.584Z,-4.70
2018-03-19T09:15:04.147Z,-4.90
2018-03-19T09:17:32.547Z,-5.10
2018-03-19T09:20:00.802Z,-5.10
2018-03-19T09:22:28.353Z,-4.90
2018-03-19T09:24:56.951Z,-5.10
2018-03-19T09:27:24.541Z,-5.10
2018-03-19T09:29:52.473Z,-5.40
2018-03-19T09:32:20.070Z,-5.20
2018-03-19T09:34:47.901Z,-5.10
2018-03-19T09:37:15.450Z,-5.10
2018-03-19T09:39:43.180Z,-5.10
2018-03-19T09:42:10.758Z,-5.10
2018-03-19T09:44:38.443Z,-4.90
2018-03-19T09:47:05.997Z,-5.00
2018-03-19T09:49:33.650Z,-4.80
2018-03-19T09:52:01.967Z,-5.20
2018-03-19T09:54:29.697Z,-5.20
2018-03-19T09:56:57.590Z,-5.10
2018-03-19T09:59:25.965Z,-4.70
2018-03-19T10:01:53.766Z,-4.70
2018-03-19T10:04:21.419Z,-4.80
2018-03-19T10:06:49.087Z,-4.90
2018-03-19T10:09:16.634Z,-4.70
2018-03-19T10:11:44.595Z,-4.80
2018-03-19T10:14:12.469Z,-4.80
2018-03-19T10:16:40.102Z,-4.80
2018-03-19T10:19:07.699Z,-4.70
2018-03-19T10:21:35.254Z,-4.80
2018-03-19T10:24:03.084Z,-4.60
2018-03-19T10:26:30.913Z,-4.80
2018-03-19T10:28:58.487Z,-4.80
2018-03-19T10:31:26.298Z,-4.60
2018-03-19T10:33:53.886Z,-4.60
2018-03-19T10:36:21.441Z,-4.60
2018-03-19T10:38:49.754Z,-4.50
2018-03-19T10:41:17.337Z,-4.50
2018-03-19T10:43:45.226Z,-4.40
2018-03-19T10:46:12.770Z,-4.50
2018-03-19T10:48:40.364Z,-4.30
2018-03-19T10:51:08.683Z,-4.30
2018-03-19T10:53:36.240Z,-4.30
2018-03-19T10:56:03.828Z,-4.60
2018-03-19T10:58:31.542Z,-4.90
2018-03-19T11:01:05.366Z,-4.50
2018-03-19T11:03:33.073Z,-4.60
2018-03-19T11:06:06.456Z,-4.80
2018-03-19T11:08:34.818Z,-4.90
2018-03-19T11:11:02.542Z,-4.90
2018-03-19T11:13:30.133Z,-4.90
2018-03-19T11:15:58.050Z,-5.00
2018-03-19T11:18:25.983Z,-5.00
2018-03-19T11:20:53.577Z,-4.80
2018-03-19T11:23:21.250Z,-4.70
2018-03-19T11:25:48.798Z,-4.70
2018-03-19T11:28:17.278Z,-4.80
2018-03-19T11:30:45.863Z,-4.70
2018-03-19T11:33:13.546Z,-4.70
2018-03-19T11:35:41.164Z,-4.50
2018-03-19T11:38:08.906Z,-4.70
2018-03-19T11:40:37.257Z,-4.70
2018-03-19T11:43:05.034Z,-4.70
2018-03-19T11:45:32.603Z,-4.70
2018-03-19T11:48:00.154Z,-4.90
2018-03-19T11:50:27.766Z,-4.50
2018-03-19T11:52:56.279Z,-4.40
2018-03-19T11:55:23.858Z,-4.40
2018-03-19T11:57:51.455Z,-4.40
2018-03-19T12:00:20.107Z,-4.60
2018-03-19T12:02:47.681Z,-4.60
2018-03-19T12:05:15.630Z,-4.40
2018-03-19T12:07:43.618Z,-4.40
2018-03-19T12:10:11.935Z,-4.60
2018-03-19T12:12:39.677Z,-4.70
2018-03-19T12:15:08.059Z,-4.80
2018-03-19T12:17:35.645Z,-4.80
2018-03-19T12:20:03.234Z,-4.70
2018-03-19T12:22:30.790Z,-5.00
2018-03-19T12:24:58.393Z,-4.90
2018-03-19T12:27:25.982Z,-4.90
2018-03-19T12:29:53.835Z,-4.80
2018-03-19T12:32:21.403Z,-4.60
2018-03-19T12:34:49.601Z,-4.60
2018-03-19T12:37:17.159Z,-4.60
2018-03-19T12:39:44.716Z,-4.60
2018-03-19T12:42:12.365Z,-4.60
2018-03-19T12:44:39.914Z,-4.70
2018-03-19T12:47:07.646Z,-4.50
2018-03-19T12:49:35.230Z,-4.60
2018-03-19T12:52:02.778Z,-4.80
2018-03-19T12:54:30.322Z,-4.80
2018-03-19T12:56:57.981Z,-4.80
2018-03-19T12:59:25.527Z,-4.70
2018-03-19T13:01:53.334Z,-4.60
2018-03-19T13:04:21.138Z,-4.70
2018-03-19T13:06:49.051Z,-4.80
2018-03-19T13:09:16.607Z,-4.80
2018-03-19T13:11:44.195Z,-4.80
2018-03-19T13:14:11.757Z,-4.80
2018-03-19T13:16:39.431Z,-4.80
2018-03-19T13:19:07.026Z,-4.70
2018-03-19T13:21:34.578Z,-4.60
2018-03-19T13:24:02.147Z,-4.70
2018-03-19T13:26:29.741Z,-4.80
2018-03-19T13:28:57.393Z,-4.80
2018-03-19T13:31:25.255Z,-4.90
2018-03-19T13:33:52.843Z,-4.90
2018-03-19T13:36:20.787Z,-5.30
2018-03-19T13:38:48.451Z,-5.30
2018-03-19T13:41:16.282Z,-5.40
2018-03-19T13:43:43.992Z,-5.20
2018-03-19T13:46:11.718Z,-5.20
2018-03-19T13:48:39.304Z,-5.30
2018-03-19T13:51:07.094Z,-5.30
2018-03-19T13:53:34.657Z,-5.00
2018-03-19T13:56:03.023Z,-5.30
2018-03-19T13:58:30.579Z,-5.30
2018-03-19T14:00:58.144Z,-5.10
2018-03-19T14:03:25.843Z,-5.10
2018-03-19T14:05:53.402Z,-5.20
2018-03-19T14:08:21.077Z,-5.10
2018-03-19T14:10:49.068Z,-5.10
2018-03-19T14:13:16.711Z,-5.20
2018-03-19T14:15:44.544Z,-5.10
2018-03-19T14:18:13.370Z,-5.30
2018-03-19T14:20:41.251Z,-5.30
2018-03-19T14:23:08.819Z,-5.30
2018-03-19T14:25:36.782Z,-5.60
2018-03-19T14:28:04.449Z,-5.30
2018-03-19T14:30:32.165Z,-5.30
2018-03-19T14:33:00.194Z,-5.30
2018-03-19T14:35:27.756Z,-5.40
2018-03-19T14:37:55.505Z,-5.40
2018-03-19T14:40:23.447Z,-5.50
2018-03-19T14:42:51.045Z,-5.60
2018-03-19T14:45:19.400Z,-5.60
2018-03-19T14:47:47.535Z,-5.60
2018-03-19T14:50:15.467Z,-5.60
2018-03-19T14:52:43.933Z,-5.50
2018-03-19T14:55:11.944Z,-5.60
2018-03-19T14:57:39.867Z,-5.40
2018-03-19T15:00:08.248Z,-5.60
2018-03-19T15:02:35.856Z,-5.60
2018-03-19T15:05:03.671Z,-5.60
2018-03-19T15:07:31.249Z,-5.60
2018-03-19T15:09:58.966Z,-5.50
2018-03-19T15:12:26.879Z,-5.60
2018-03-19T15:14:55.249Z,-5.70
2018-03-19T15:17:22.992Z,-5.70
2018-03-19T15:19:50.653Z,-5.70
2018-03-19T15:22:18.689Z,-5.80
2018-03-19T15:24:46.285Z,-5.90
2018-03-19T15:27:13.874Z,-5.80
2018-03-19T15:29:42.366Z,-5.90
2018-03-19T15:32:10.461Z,-5.90
2018-03-19T15:34:38.227Z,-5.90
2018-03-19T15:37:05.809Z,-5.90
2018-03-19T15:39:33.625Z,-5.80
2018-03-19T15:42:01.190Z,-5.90
2018-03-19T15:44:29.066Z,-5.80
2018-03-19T15:46:57.245Z,-5.70
2018-03-19T15:49:24.973Z,-5.80
2018-03-19T15:51:52.658Z,-5.90
2018-03-19T15:54:20.428Z,-5.80
2018-03-19T15:56:47.999Z,-5.90
2018-03-19T15:59:15.839Z,-5.80
2018-03-19T16:01:44.146Z,-5.80
2018-03-19T16:04:11.982Z,-5.70
2018-03-19T16:06:39.862Z,-5.90
2018-03-19T16:09:07.481Z,-5.90
2018-03-19T16:11:35.176Z,-5.90
2018-03-19T16:14:02.837Z,-5.90
2018-03-19T16:16:30.703Z,-6.00
2018-03-19T16:18:58.678Z,-6.00
2018-03-19T16:21:26.435Z,-5.90
2018-03-19T16:23:54.135Z,-6.00
2018-03-19T16:26:22.383Z,-6.00
2018-03-19T16:28:50.029Z,-6.00
2018-03-19T16:31:17.955Z,-6.00
2018-03-19T16:33:46.341Z,-6.10
2018-03-19T16:36:13.912Z,-6.10
2018-03-19T16:38:41.785Z,-6.10
2018-03-19T16:41:09.756Z,-6.00
2018-03-19T16:43:37.634Z,-6.10
2018-03-19T16:46:05.302Z,-6.00
2018-03-19T16:48:33.017Z,-6.10
2018-03-19T16:51:01.639Z,-6.10
2018-03-19T16:53:30.119Z,-6.10
2018-03-19T16:55:58.205Z,-6.20
2018-03-19T16:58:25.890Z,-6.20
2018-03-19T17:00:53.820Z,-6.10
2018-03-19T17:03:21.631Z,-6.10
2018-03-19T17:05:50.147Z,-6.00
2018-03-19T17:08:17.982Z,-6.10
2018-03-19T17:10:46.775Z,-6.10
2018-03-19T17:13:14.534Z,-6.20
2018-03-19T17:15:43.161Z,-6.10
2018-03-19T17:18:11.068Z,-6.20
2018-03-19T17:20:38.921Z,-6.10
2018-03-19T17:23:07.693Z,-6.20
2018-03-19T17:25:35.883Z,-6.20
2018-03-19T17:28:04.148Z,-6.10
2018-03-19T17:30:32.459Z,-6.20
2018-03-19T17:33:00.694Z,-6.30
2018-03-19T17:35:28.746Z,-6.20
2018-03-19T17:37:57.224Z,-6.30
2018-03-19T17:40:25.193Z,-6.40
2018-03-19T17:42:53.280Z,-6.40
2018-03-19T17:45:20.925Z,-6.30
2018-03-19T17:47:49.162Z,-6.20
2018-03-19T17:50:17.055Z,-6.10
2018-03-19T17:52:44.801Z,-6.20
2018-03-19T17:55:12.895Z,-6.20
2018-03-19T17:57:40.623Z,-6.20
2018-03-19T18:00:08.946Z,-6.30
2018-03-19T18:02:36.747Z,-6.30
2018-03-19T18:05:04.307Z,-6.30
2018-03-19T18:07:32.576Z,-6.40
2018-03-19T18:10:00.211Z,-6.30
2018-03-19T18:12:27.775Z,-6.40
2018-03-19T18:14:55.648Z,-6.50
2018-03-19T18:17:23.576Z,-6.40
2018-03-19T18:19:51.171Z,-6.40
2018-03-19T18:22:18.911Z,-6.40
2018-03-19T18:24:46.496Z,-6.40
2018-03-19T18:27:14.087Z,-6.30
2018-03-19T18:29:41.706Z,-6.30
2018-03-19T18:32:09.278Z,-6.40
2018-03-19T18:34:36.836Z,-6.50
2018-03-19T18:37:04.783Z,-6.40
2018-03-19T18:39:32.535Z,-6.40
2018-03-19T18:42:00.270Z,-6.30
2018-03-19T18:44:28.059Z,-6.30
2018-03-19T18:46:55.906Z,-6.30
2018-03-19T18:49:23.538Z,-6.30
2018-03-19T18:51:52.068Z,-6.40
2018-03-19T18:54:19.627Z,-6.40
2018-03-19T18:56:47.524Z,-6.40
2018-03-19T18:59:15.656Z,-6.40
2018-03-19T19:01:43.729Z,-6.40
2018-03-19T19:04:12.318Z,-6.40
2018-03-19T19:06:40.309Z,-6.30
2018-03-19T19:09:08.287Z,-6.40
2018-03-19T19:11:36.313Z,-6.40
2018-03-19T19:14:04.412Z,-6.30
2018-03-19T19:16:32.327Z,-6.30
2018-03-19T19:19:00.208Z,-6.30
2018-03-19T19:21:27.979Z,-6.30
2018-03-19T19:23:55.679Z,-6.30
2018-03-19T19:26:23.348Z,-6.30
2018-03-19T19:28:51.213Z,-6.30
2018-03-19T19:31:19.083Z,-6.30
2018-03-19T19:33:47.769Z,-6.50
2018-03-19T19:36:17.131Z,-6.40
2018-03-19T19:38:44.733Z,-6.40
2018-03-19T19:41:13.193Z,-6.40
2018-03-19T19:43:41.072Z,-6.40
2018-03-19T19:46:09.956Z,-6.40
2018-03-19T19:48:37.627Z,-6.50
2018-03-19T19:51:06.129Z,-6.40
2018-03-19T19:53:33.981Z,-6.40
2018-03-19T19:56:02.339Z,-6.30
2018-03-19T19:58:30.952Z,-6.30
2018-03-19T20:00:58.735Z,-6.30
2018-03-19T20:03:26.811Z,-6.30
2018-03-19T20:05:54.625Z,-6.30
2018-03-19T20:08:22.329Z,-6.30
2018-03-19T20:10:50.410Z,-6.40
2018-03-19T20:13:18.615Z,-6.40
2018-03-19T20:15:46.272Z,-6.40
2018-03-19T20:18:14.414Z,-6.20
2018-03-19T20:20:42.392Z,-6.30
2018-03-19T20:23:10.566Z,-6.30
2018-03-19T20:25:38.231Z,-6.30
2018-03-19T20:28:06.098Z,-6.30
2018-03-19T20:30:33.992Z,-6.30
2018-03-19T20:33:02.868Z,-6.40
2018-03-19T20:35:30.905Z,-6.40
2018-03-19T20:37:58.503Z,-6.40
2018-03-19T20:40:26.231Z,-6.40
2018-03-19T20:42:55.550Z,-6.30
2018-03-19T20:45:23.957Z,-6.30
2018-03-19T20:47:51.938Z,-6.30
2018-03-19T20:50:21.577Z,-6.30
2018-03-19T20:52:49.734Z,-6.30
2018-03-19T20:55:19.012Z,-6.30
2018-03-19T20:57:47.760Z,-6.30
2018-03-19T21:00:15.678Z,-6.30
2018-03-19T21:02:43.417Z,-6.30
2018-03-19T21:05:11.842Z,-6.30
2018-03-19T21:07:39.504Z,-6.30
2018-03-19T21:10:07.375Z,-6.30
2018-03-19T21:12:35.257Z,-6.30
2018-03-19T21:15:03.510Z,-6.30
2018-03-19T21:17:31.398Z,-6.30
2018-03-19T21:19:59.110Z,-6.20
2018-03-19T21:22:26.690Z,-6.30
2018-03-19T21:24:54.594Z,-6.30
2018-03-19T21:27:22.812Z,-6.30
2018-03-19T21:29:50.614Z,-6.40
2018-03-19T21:32:18.823Z,-6.30
2018-03-19T21:34:46.848Z,-6.30
2018-03-19T21:37:14.616Z,-6.30
2018-03-19T21:39:42.232Z,-6.30
2018-03-19T21:42:10.677Z,-6.40
2018-03-19T21:44:38.763Z,-6.40
2018-03-19T21:47:07.255Z,-6.30
2018-03-19T21:49:35.717Z,-6.30
2018-03-19T21:52:03.381Z,-6.30
2018-03-19T21:54:31.031Z,-6.30
2018-03-19T21:56:58.688Z,-6.20
2018-03-19T21:59:26.356Z,-6.20
2018-03-19T22:01:54.323Z,-6.30
2018-03-19T22:04:22.083Z,-6.30
2018-03-19T22:06:49.644Z,-6.30
2018-03-19T22:09:17.353Z,-6.30
2018-03-19T22:11:45.131Z,-6.30
2018-03-19T22:14:12.689Z,-6.30
2018-03-19T22:16:40.244Z,-6.30
2018-03-19T22:19:07.895Z,-6.30
2018-03-19T22:21:35.894Z,-6.30
2018-03-19T22:24:03.462Z,-6.20
2018-03-19T22:26:31.208Z,-6.20
2018-03-19T22:28:59.350Z,-6.10
2018-03-19T22:31:27.369Z,-6.20
2018-03-19T22:33:54.964Z,-6.20
2018-03-19T22:36:22.643Z,-6.30
2018-03-19T22:38:50.210Z,-6.20
2018-03-19T22:41:17.792Z,-6.30
2018-03-19T22:43:45.490Z,-6.20
2018-03-19T22:46:13.855Z,-6.30
2018-03-19T22:48:41.822Z,-6.30
2018-03-19T22:51:09.626Z,-6.20
2018-03-19T22:53:37.185Z,-6.10
2018-03-19T22:56:04.788Z,-6.20
2018-03-19T22:58:32.438Z,-6.10
2018-03-19T23:01:00.009Z,-6.20
2018-03-19T23:03:28.074Z,-6.30
2018-03-19T23:05:55.629Z,-6.30
2018-03-19T23:08:23.505Z,-6.30
2018-03-19T23:10:51.108Z,-6.40
2018-03-19T23:13:18.653Z,-6.40
2018-03-19T23:15:46.973Z,-6.20
2018-03-19T23:18:14.813Z,-6.20
2018-03-19T23:20:42.625Z,-6.30
2018-03-19T23:23:10.192Z,-6.40
2018-03-19T23:25:38.123Z,-6.30
2018-03-19T23:28:05.681Z,-6.40
2018-03-19T23:30:33.487Z,-6.30
2018-03-19T23:33:01.370Z,-6.20
2018-03-19T23:35:29.969Z,-6.20
2018-03-19T23:37:57.662Z,-6.20
2018-03-19T23:40:25.267Z,-6.30
2018-03-19T23:42:52.953Z,-6.40
2018-03-19T23:45:20.501Z,-6.40
2018-03-19T23:47:49.141Z,-6.40
2018-03-19T23:50:16.718Z,-6.40
2018-03-19T23:52:44.634Z,-6.40
2018-03-19T23:55:12.307Z,-6.30
2018-03-19T23:57:39.977Z,-6.30
